createdAt,value
2018-05-10T00:01:56.854Z,5.50
2018-05-10T00:04:24.310Z,6.13
2018-05-10T00:06:51.772Z,5.90
2018-05-10T00:09:19.236Z,5.63
2018-05-10T00:11:46.673Z,5.33
2018-05-10T00:14:14.273Z,5.60
2018-05-10T00:16:42.499Z,5.80
2018-05-10T00:19:09.947Z,5.47
2018-05-10T00:21:37.418Z,5.23
2018-05-10T00:24:05.618Z,5.93
2018-05-10T00:26:33.070Z,6.00
2018-05-10T00:29:01.282Z,4.97
2018-05-10T00:31:28.737Z,5.57
2018-05-10T00:33:56.963Z,5.13
2018-05-10T00:36:24.429Z,5.60
2018-05-10T00:38:51.888Z,5.83
2018-05-10T00:41:19.347Z,6.00
2018-05-10T00:43:46.807Z,5.30
2018-05-10T00:46:14.754Z,5.10
2018-05-10T00:48:42.247Z,5.37
2018-05-10T00:51:09.785Z,5.50
2018-05-10T00:53:37.161Z,5.70
2018-05-10T00:56:04.599Z,5.93
2018-05-10T00:58:32.067Z,6.43
2018-05-10T01:00:59.823Z,6.03
2018-05-10T01:03:28.066Z,5.83
2018-05-10T01:05:56.275Z,5.27
2018-05-10T01:08:23.743Z,6.30
2018-05-10T01:10:51.945Z,5.50
2018-05-10T01:13:19.406Z,5.77
2018-05-10T01:15:46.854Z,6.53
2018-05-10T01:18:14.295Z,5.83
2018-05-10T01:20:41.802Z,6.00
2018-05-10T01:23:09.262Z,5.77
2018-05-10T01:25:36.719Z,7.20
2018-05-10T01:28:04.195Z,8.23
2018-05-10T01:30:31.666Z,8.03
2018-05-10T01:32:59.421Z,8.63
2018-05-10T01:35:39.371Z,12.30
2018-05-10T01:38:07.620Z,11.07
2018-05-10T01:40:35.105Z,11.67
2018-05-10T01:43:02.583Z,10.97
2018-05-10T01:45:30.053Z,10.30
2018-05-10T01:47:57.533Z,10.33
2018-05-10T01:50:25.007Z,10.90
2018-05-10T01:52:52.521Z,11.23
2018-05-10T01:55:20.759Z,11.70
2018-05-10T01:57:48.234Z,12.60
2018-05-10T02:00:15.704Z,11.63
2018-05-10T02:02:43.137Z,12.90
2018-05-10T02:05:11.367Z,12.17
2018-05-10T02:07:38.846Z,11.83
2018-05-10T02:10:06.330Z,11.23
2018-05-10T02:12:33.794Z,10.00
2018-05-10T02:15:05.681Z,11.20
2018-05-10T02:17:33.133Z,9.77
2018-05-10T02:20:00.602Z,10.37
2018-05-10T02:22:28.043Z,9.27
2018-05-10T02:24:55.521Z,9.63
2018-05-10T02:27:23.767Z,9.27
2018-05-10T02:29:51.396Z,10.07
2018-05-10T02:32:18.847Z,9.30
2018-05-10T02:34:46.314Z,10.00
2018-05-10T02:37:13.788Z,9.20
2018-05-10T02:39:41.258Z,11.00
2018-05-10T02:42:08.715Z,10.77
2018-05-10T02:44:36.186Z,10.80
2018-05-10T02:47:03.667Z,10.60
2018-05-10T02:49:31.123Z,10.53
2018-05-10T02:51:59.167Z,11.07
2018-05-10T02:54:26.614Z,10.50
2018-05-10T02:56:54.559Z,10.40
2018-05-10T02:59:22.018Z,11.53
2018-05-10T03:01:50.267Z,11.53
2018-05-10T03:04:17.726Z,11.67
2018-05-10T03:06:46.079Z,11.50
2018-05-10T03:09:14.312Z,10.90
2018-05-10T03:11:41.787Z,12.70
2018-05-10T03:14:09.239Z,11.93
2018-05-10T03:16:37.498Z,12.20
2018-05-10T03:19:04.957Z,12.70
2018-05-10T03:21:32.424Z,12.90
2018-05-10T03:23:59.903Z,12.67
2018-05-10T03:26:28.130Z,11.97
2018-05-10T03:28:57.239Z,13.37
2018-05-10T03:31:25.447Z,13.37
2018-05-10T03:33:53.710Z,13.23
2018-05-10T03:36:21.230Z,13.50
2018-05-10T03:38:48.707Z,13.63
2018-05-10T03:41:16.162Z,13.10
2018-05-10T03:43:44.509Z,13.10
2018-05-10T03:46:11.985Z,13.87
2018-05-10T03:48:39.453Z,12.10
2018-05-10T03:51:06.927Z,12.10
2018-05-10T03:53:34.387Z,13.23
2018-05-10T03:59:04.429Z,12.83
2018-05-10T04:01:31.891Z,13.33
2018-05-10T04:52:15.564Z,11.97
2018-05-10T04:54:43.261Z,12.10
2018-05-10T04:57:10.651Z,12.30
2018-05-10T04:59:38.354Z,11.43
2018-05-10T05:02:05.789Z,11.03
2018-05-10T05:04:33.290Z,12.27
2018-05-10T05:07:00.768Z,12.00
2018-05-10T05:09:28.242Z,11.67
2018-05-10T05:11:55.721Z,10.77
2018-05-10T05:14:23.952Z,11.03
2018-05-10T05:16:52.175Z,10.97
2018-05-10T05:19:19.929Z,11.10
2018-05-10T05:21:48.150Z,12.13
2018-05-10T05:24:15.626Z,12.30
2018-05-10T05:26:43.125Z,11.00
2018-05-10T05:29:10.651Z,11.23
2018-05-10T05:31:38.136Z,13.30
2018-05-10T05:34:05.667Z,13.40
2018-05-10T05:36:33.230Z,14.97
2018-05-10T05:39:03.015Z,14.43
2018-05-10T05:41:30.503Z,17.60
2018-05-10T05:43:57.970Z,18.30
2018-05-10T05:46:25.445Z,20.20
2018-05-10T05:48:52.928Z,22.37
2018-05-10T05:51:21.042Z,21.80
2018-05-10T05:53:48.527Z,23.90
2018-05-10T05:56:16.356Z,25.97
2018-05-10T05:59:08.829Z,23.60
2018-05-10T06:01:36.363Z,29.03
2018-05-10T06:04:03.867Z,26.90
2018-05-10T06:06:31.410Z,27.73
2018-05-10T06:08:58.923Z,29.87
2018-05-10T06:11:26.409Z,27.60
2018-05-10T06:13:53.871Z,26.00
2018-05-10T06:16:21.356Z,28.93
2018-05-10T06:18:48.847Z,33.33
2018-05-10T06:23:58.174Z,36.80
2018-05-10T06:32:13.775Z,38.50
2018-05-10T06:34:41.308Z,40.10
2018-05-10T06:40:13.518Z,42.00
2018-05-10T06:42:41.025Z,44.20
2018-05-10T06:45:12.495Z,43.07
2018-05-10T06:47:39.971Z,45.90
2018-05-10T06:50:08.030Z,44.60
2018-05-10T06:52:35.515Z,46.40
2018-05-10T06:55:03.107Z,49.53
2018-05-10T07:00:26.538Z,50.67
2018-05-10T07:02:54.052Z,47.83
2018-05-10T07:05:22.267Z,51.47
2018-05-10T07:07:49.744Z,51.00
2018-05-10T07:10:17.206Z,49.60
2018-05-10T07:12:44.698Z,51.23
2018-05-10T07:15:13.519Z,47.40
2018-05-10T07:17:41.037Z,43.20
2018-05-10T07:20:09.313Z,43.23
2018-05-10T07:22:37.553Z,40.60
2018-05-10T07:25:05.021Z,40.40
2018-05-10T07:27:32.460Z,40.10
2018-05-10T07:29:59.944Z,41.10
2018-05-10T07:32:27.395Z,38.27
2018-05-10T07:34:54.873Z,40.47
2018-05-10T07:37:23.082Z,41.00
2018-05-10T07:39:50.586Z,41.40
2018-05-10T07:42:18.068Z,43.37
2018-05-10T07:44:46.280Z,48.07
2018-05-10T07:47:13.797Z,47.77
2018-05-10T07:49:41.239Z,50.10
2018-05-10T07:52:09.498Z,48.10
2018-05-10T07:54:36.980Z,44.70
2018-05-10T07:57:05.205Z,49.43
2018-05-10T07:59:32.673Z,45.67
2018-05-10T08:02:00.156Z,48.20
2018-05-10T08:04:27.612Z,49.53
2018-05-10T08:06:55.853Z,47.13
2018-05-10T08:09:23.315Z,45.97
2018-05-10T08:11:51.665Z,43.37
2018-05-10T08:14:19.142Z,44.13
2018-05-10T08:16:46.612Z,43.20
2018-05-10T08:19:14.073Z,42.17
2018-05-10T08:21:41.566Z,41.87
2018-05-10T08:24:09.035Z,41.10
2018-05-10T08:26:37.271Z,39.93
2018-05-10T08:29:05.501Z,41.40
2018-05-10T08:31:32.975Z,41.40
2018-05-10T08:34:00.448Z,39.20
2018-05-10T08:36:27.952Z,39.33
2018-05-10T08:38:55.378Z,42.50
2018-05-10T08:41:23.609Z,37.80
2018-05-10T08:43:51.855Z,40.50
2018-05-10T08:46:19.315Z,38.80
2018-05-10T08:48:46.798Z,38.83
2018-05-10T08:51:14.240Z,39.90
2018-05-10T08:53:41.716Z,38.07
2018-05-10T08:56:10.549Z,39.67
2018-05-10T08:58:38.009Z,39.97
2018-05-10T09:01:05.677Z,39.43
2018-05-10T09:03:34.201Z,40.23
2018-05-10T09:06:01.725Z,40.63
2018-05-10T09:08:29.289Z,41.47
2018-05-10T09:10:58.282Z,39.00
2018-05-10T09:13:25.800Z,37.43
2018-05-10T09:15:53.303Z,38.37
2018-05-10T09:18:20.773Z,42.57
2018-05-10T09:20:48.251Z,39.50
2018-05-10T09:23:15.735Z,38.87
2018-05-10T09:25:43.200Z,37.87
2018-05-10T09:28:10.690Z,37.67
2018-05-10T09:30:38.187Z,37.27
2018-05-10T09:33:05.643Z,30.53
2018-05-10T09:38:07.610Z,25.53
2018-05-10T09:40:35.842Z,23.50
2018-05-10T09:43:03.922Z,22.23
2018-05-10T09:45:31.396Z,20.23
2018-05-10T09:47:58.898Z,20.70
2018-05-10T09:50:26.395Z,20.80
2018-05-10T09:52:54.673Z,21.23
2018-05-10T09:55:22.119Z,19.60
2018-05-10T09:57:49.639Z,17.90
2018-05-10T10:00:23.511Z,13.80
2018-05-10T10:02:51.085Z,10.53
2018-05-10T10:05:18.551Z,10.37
2018-05-10T10:10:19.968Z,7.03
2018-05-10T10:12:47.477Z,7.20
2018-05-10T10:15:14.918Z,7.60
2018-05-10T10:17:42.537Z,7.23
2018-05-10T10:20:10.720Z,8.10
2018-05-10T10:22:38.993Z,7.90
2018-05-10T10:25:06.521Z,7.03
2018-05-10T10:27:34.012Z,9.13
2018-05-10T10:30:01.467Z,8.97
2018-05-10T10:32:29.010Z,21.40
2018-05-10T10:34:56.504Z,21.93
2018-05-10T10:37:24.718Z,25.97
2018-05-10T10:39:52.206Z,28.20
2018-05-10T10:42:19.681Z,27.67
2018-05-10T10:44:47.158Z,28.67
2018-05-10T10:47:14.632Z,26.20
2018-05-10T10:49:42.512Z,25.87
2018-05-10T10:52:09.997Z,24.03
2018-05-10T10:54:37.537Z,23.43
2018-05-10T10:57:04.982Z,23.37
2018-05-10T10:59:32.484Z,23.30
2018-05-10T11:02:00.785Z,20.73
2018-05-10T11:04:28.206Z,23.20
2018-05-10T11:06:55.634Z,23.40
2018-05-10T11:09:23.879Z,22.20
2018-05-10T11:11:51.346Z,23.73
2018-05-10T11:14:18.807Z,23.80
2018-05-10T11:16:46.726Z,24.13
2018-05-10T11:19:14.168Z,23.90
2018-05-10T11:21:41.660Z,23.10
2018-05-10T11:24:09.615Z,23.53
2018-05-10T11:26:37.084Z,25.07
2018-05-10T11:29:04.539Z,20.73
2018-05-10T11:31:32.803Z,21.30
2018-05-10T11:34:00.278Z,21.97
2018-05-10T11:36:27.746Z,23.00
2018-05-10T11:38:55.290Z,22.37
2018-05-10T11:41:22.778Z,23.40
2018-05-10T11:46:32.964Z,21.00
2018-05-10T11:49:00.431Z,22.70
2018-05-10T11:51:27.921Z,21.83
2018-05-10T11:53:55.399Z,21.10
2018-05-10T11:56:22.879Z,20.90
2018-05-10T11:58:50.358Z,21.53
2018-05-10T12:01:18.292Z,21.63
2018-05-10T12:03:46.632Z,21.80
2018-05-10T12:09:06.193Z,21.97
2018-05-10T12:11:33.677Z,21.67
2018-05-10T12:14:01.923Z,20.87
2018-05-10T12:17:00.711Z,21.40
2018-05-10T12:19:28.231Z,22.30
2018-05-10T12:21:55.686Z,18.03
2018-05-10T12:24:27.222Z,23.10
2018-05-10T12:26:54.706Z,21.27
2018-05-10T12:29:28.989Z,19.23
2018-05-10T12:31:56.548Z,20.10
2018-05-10T12:34:24.147Z,18.10
2018-05-10T12:36:51.625Z,17.17
2018-05-10T12:39:19.857Z,17.03
2018-05-10T12:41:47.874Z,17.37
2018-05-10T12:44:15.361Z,16.67
2018-05-10T12:46:43.477Z,15.90
2018-05-10T12:49:10.939Z,16.97
2018-05-10T12:54:18.170Z,18.67
2018-05-10T12:56:50.016Z,19.27
2018-05-10T13:05:56.083Z,25.63
2018-05-10T13:08:28.788Z,24.77
2018-05-10T13:19:42.915Z,28.53
2018-05-10T13:22:11.362Z,26.90
2018-05-10T13:24:53.021Z,28.10
2018-05-10T13:27:20.535Z,26.27
2018-05-10T13:29:48.055Z,26.27
2018-05-10T13:32:17.146Z,25.40
2018-05-10T13:34:44.682Z,26.60
2018-05-10T13:37:12.164Z,26.33
2018-05-10T13:39:39.641Z,24.40
2018-05-10T13:42:07.176Z,24.60
2018-05-10T13:44:34.631Z,23.33
2018-05-10T13:47:02.232Z,25.97
2018-05-10T13:49:29.586Z,24.13
2018-05-10T13:51:57.111Z,24.07
2018-05-10T13:54:24.599Z,22.10
2018-05-10T14:17:57.797Z,15.60
2018-05-10T14:20:25.268Z,14.40
2018-05-10T14:22:56.667Z,14.20
2018-05-10T14:25:24.592Z,12.37
2018-05-10T14:27:58.097Z,12.70
2018-05-10T14:30:25.713Z,11.40
2018-05-10T14:32:53.245Z,10.60
2018-05-10T14:35:20.737Z,8.43
2018-05-10T14:37:48.232Z,6.77
2018-05-10T14:40:15.703Z,6.40
2018-05-10T14:42:43.196Z,5.30
2018-05-10T14:45:10.683Z,4.97
2018-05-10T14:47:38.173Z,5.27
2018-05-10T14:50:05.659Z,3.90
2018-05-10T14:52:33.155Z,4.17
2018-05-10T14:55:01.412Z,3.40
2018-05-10T14:57:28.855Z,3.83
2018-05-10T14:59:56.500Z,4.10
2018-05-10T15:02:24.020Z,5.90
2018-05-10T15:17:30.316Z,6.10
2018-05-10T15:19:57.854Z,5.20
2018-05-10T15:22:25.946Z,4.87
2018-05-10T15:42:26.327Z,7.23
2018-05-10T15:44:53.933Z,6.63
2018-05-10T15:47:35.758Z,5.70
2018-05-10T15:56:21.060Z,7.60
2018-05-10T15:59:02.391Z,6.57
2018-05-10T16:08:04.106Z,9.13
2018-05-10T16:59:00.894Z,12.30
2018-05-10T17:01:28.397Z,14.73
2018-05-10T17:03:55.866Z,16.97
2018-05-10T17:06:23.322Z,17.27
2018-05-10T17:08:50.953Z,16.13
2018-05-10T17:11:18.431Z,15.70
2018-05-10T17:13:46.144Z,16.37
2018-05-10T17:16:13.599Z,17.80
2018-05-10T17:18:41.068Z,18.10
2018-05-10T17:21:08.671Z,18.30
2018-05-10T17:23:36.147Z,17.90
2018-05-10T17:26:03.672Z,18.17
2018-05-10T17:28:36.010Z,17.40
2018-05-10T17:31:03.545Z,16.07
2018-05-10T17:33:30.975Z,17.27
2018-05-10T17:35:58.515Z,18.03
2018-05-10T17:38:26.998Z,17.57
2018-05-10T17:40:54.470Z,18.50
2018-05-10T17:43:21.982Z,18.70
2018-05-10T17:45:49.452Z,17.37
2018-05-10T17:48:17.023Z,17.73
2018-05-10T17:50:44.484Z,16.90
2018-05-10T17:53:11.979Z,17.27
2018-05-10T17:55:39.462Z,17.30
2018-05-10T17:58:07.093Z,17.53
2018-05-10T18:00:34.592Z,18.60
2018-05-10T18:03:02.082Z,15.53
2018-05-10T18:05:29.551Z,16.97
2018-05-10T18:07:57.029Z,18.17
2018-05-10T18:10:24.513Z,18.00
2018-05-10T18:12:52.002Z,18.17
2018-05-10T18:15:19.479Z,18.93
2018-05-10T18:17:46.936Z,18.13
2018-05-10T18:20:14.419Z,16.13
2018-05-10T18:22:41.923Z,17.60
2018-05-10T18:25:09.890Z,15.43
2018-05-10T18:27:37.441Z,16.87
2018-05-10T18:30:04.936Z,15.87
2018-05-10T18:45:27.436Z,17.20
2018-05-10T18:47:54.945Z,18.73
2018-05-10T18:50:22.431Z,18.30
2018-05-10T18:52:49.896Z,17.97
2018-05-10T18:55:17.393Z,19.03
2018-05-10T18:57:45.619Z,19.63
2018-05-10T19:00:13.521Z,19.97
2018-05-10T19:02:40.993Z,18.60
2018-05-10T19:05:08.527Z,19.30
2018-05-10T19:07:35.987Z,19.00
2018-05-10T19:10:04.252Z,18.70
2018-05-10T19:12:31.723Z,19.03
2018-05-10T19:14:59.301Z,18.33
2018-05-10T19:17:26.785Z,17.90
2018-05-10T19:19:54.260Z,19.17
2018-05-10T19:22:22.289Z,17.60
2018-05-10T19:24:54.687Z,24.60
2018-05-10T19:27:22.133Z,19.40
2018-05-10T19:29:50.444Z,18.73
2018-05-10T19:32:18.672Z,18.37
2018-05-10T19:34:46.190Z,18.00
2018-05-10T19:37:14.276Z,18.50
2018-05-10T19:39:41.773Z,18.30
2018-05-10T19:42:09.935Z,17.60
2018-05-10T19:44:37.403Z,19.00
2018-05-10T19:47:04.883Z,19.93
2018-05-10T19:49:32.379Z,23.73
2018-05-10T20:00:45.224Z,15.70
2018-05-10T20:03:12.767Z,14.67
2018-05-10T20:05:41.021Z,15.43
2018-05-10T20:08:08.540Z,14.97
2018-05-10T20:10:36.881Z,15.03
2018-05-10T20:13:05.147Z,16.40
2018-05-10T20:15:32.591Z,16.50
2018-05-10T20:18:00.856Z,16.03
2018-05-10T20:20:29.102Z,14.57
2018-05-10T20:22:56.609Z,15.50
2018-05-10T20:25:24.064Z,14.47
2018-05-10T20:27:51.657Z,14.90
2018-05-10T20:30:19.727Z,12.97
2018-05-10T20:32:52.642Z,13.40
2018-05-10T20:35:32.634Z,13.53
2018-05-10T20:38:00.218Z,14.30
2018-05-10T20:40:27.692Z,13.30
2018-05-10T20:42:55.198Z,14.00
2018-05-10T20:45:22.721Z,14.17
2018-05-10T20:47:50.241Z,13.00
2018-05-10T20:50:17.728Z,13.40
2018-05-10T20:52:45.992Z,12.97
2018-05-10T20:55:13.524Z,13.13
2018-05-10T20:57:40.933Z,13.43
2018-05-10T21:00:08.999Z,13.00
2018-05-10T21:02:36.709Z,12.20
2018-05-10T21:05:04.152Z,13.40
2018-05-10T21:07:31.642Z,11.60
2018-05-10T21:09:59.213Z,12.57
2018-05-10T21:12:45.225Z,14.70
2018-05-10T21:15:12.716Z,13.80
2018-05-10T21:17:40.209Z,11.70
2018-05-10T21:20:08.473Z,13.20
2018-05-10T21:22:35.933Z,12.90
2018-05-10T21:25:07.360Z,12.50
2018-05-10T21:27:35.594Z,13.20
2018-05-10T21:30:03.170Z,11.97
2018-05-10T21:32:30.635Z,11.30
2018-05-10T21:34:58.487Z,11.40
2018-05-10T21:49:44.885Z,10.80
2018-05-10T22:01:29.501Z,11.10
2018-05-10T22:03:57.754Z,12.70
2018-05-10T22:06:25.205Z,11.97
2018-05-10T22:08:53.267Z,12.93
2018-05-10T22:11:20.734Z,12.30
2018-05-10T22:13:48.206Z,12.70
2018-05-10T22:16:15.690Z,12.50
2018-05-10T22:18:43.183Z,13.97
2018-05-10T22:21:10.632Z,13.13
2018-05-10T22:23:38.108Z,11.33
2018-05-10T22:26:05.608Z,12.83
2018-05-10T22:28:34.077Z,12.90
2018-05-10T22:31:01.523Z,12.40
2018-05-10T22:33:30.424Z,12.60
2018-05-10T23:00:02.858Z,12.30
2018-05-10T23:02:30.425Z,13.43
2018-05-10T23:08:01.501Z,13.73
2018-05-10T23:10:28.936Z,13.03
2018-05-10T23:12:56.406Z,13.60
2018-05-10T23:15:23.887Z,13.00
2018-05-10T23:17:51.363Z,14.03
2018-05-10T23:20:19.601Z,14.00
2018-05-10T23:22:47.066Z,14.93
2018-05-10T23:25:14.538Z,13.07
2018-05-10T23:27:42.013Z,13.67
2018-05-10T23:30:09.593Z,14.83
2018-05-10T23:32:37.063Z,15.07
2018-05-10T23:35:04.525Z,13.63
2018-05-10T23:37:31.989Z,14.27
2018-05-10T23:39:59.434Z,15.13
2018-05-10T23:42:27.697Z,13.73
2018-05-10T23:44:55.189Z,14.40
2018-05-10T23:47:22.651Z,15.20
2018-05-10T23:49:50.131Z,15.33
2018-05-10T23:52:17.568Z,15.87
2018-05-10T23:54:45.076Z,14.93
2018-05-10T23:57:13.374Z,15.27
2018-05-10T23:59:40.838Z,14.00
